Pagrindinis puslapis
METAR-TAF:

METAR-TAF

Oro uostai :

Lavan Island, Iranas

platuma: 26-48-37N, ilguma: 53-21-22E, Aukštis: 23 m

Dabartinis oras

Ataskaita buvo paskelbta 1 valandą ir 9 minutes, ne 10:00 UTC
Vėjas 12 kt iš Pietryčių
Temperatūra 33°C
Drėgmė 63%
Slėgis 1013 hPa
Matomumas: 8000 m
Mažai debesys ne aukštis 2500 ft, aukštai iškilę kamuoliniai debesys.

METAR: OIBV 141000Z 14012KT 8000 FEW025TCU 33/25 Q1013

Laikas: 14:39 (11:09 UTC)


TAF: trūkstamas

Orai ataskaitas ir orų prognozės (METAR, TAF).

turimą stotys yra geltonos ir raudonos taškus žemėlapyje.

Perkelti pele per norėdami pamatyti stoties vardą.

Tada spustelėkite, norėdami matyti oro stebėjimo ir prognozės.

Norėdami pakeisti žemėlapį: spustelėkite ant žalios mygtukų su juodo kryžiaus žemyn,; žalią mygtuką su brūkšneliu, jei norite nutolinti; arba žalių rodyklių gretimoms žemėlapius.


METAR-TAF: